Time;durP1;ratioP1;P1;durP2;ratioP2;P2;SDS_P1;SDS_P2;PMS_P1;PMS_P2;Temp;Humidity;BMP_temperature;BMP_pressure;BME280_temperature;BME280_humidity;BME280_pressure;Samples;Min_cycle;Max_cycle;Signal;HPM_P1;HPM_P2
2023/09/22 00:01:20;;;;;;;1862.38;999.90;;;;;;;24.91;65.49;97347.94;4890208;28;103235;-63
2023/09/22 00:03:48;;;;;;;1999.90;999.90;;;;;;;24.96;66.48;97341.81;4889193;28;102789;-61
2023/09/22 00:06:18;;;;;;;1999.90;999.90;;;;;;;24.76;67.30;97352.94;4891913;28;103971;-61
2023/09/22 00:08:47;;;;;;;1839.85;999.90;;;;;;;24.78;67.41;97354.38;4902282;28;104433;-61
2023/09/22 00:11:15;;;;;;;1885.55;999.90;;;;;;;25.20;65.23;97348.91;4893267;28;103516;-61
2023/09/22 00:13:43;;;;;;;1515.53;999.90;;;;;;;25.26;64.16;97350.66;4889205;28;103500;-61
2023/09/22 00:16:11;;;;;;;1704.50;999.90;;;;;;;24.86;64.73;97352.41;4892749;28;104079;-61
2023/09/22 00:18:39;;;;;;;1780.78;999.90;;;;;;;25.02;65.05;97354.41;4890419;28;104130;-61
2023/09/22 00:21:08;;;;;;;1999.90;999.90;;;;;;;24.08;68.16;97360.56;4889972;28;103248;-61
2023/09/22 00:23:36;;;;;;;1999.90;999.90;;;;;;;23.89;70.37;97353.56;4889497;28;103310;-61
2023/09/22 00:26:07;;;;;;;1999.90;999.90;;;;;;;24.09;68.56;97348.72;4891130;28;104055;-61
2023/09/22 00:28:36;;;;;;;1999.90;999.90;;;;;;;23.76;69.97;97345.63;4892539;28;103937;-61
2023/09/22 00:31:04;;;;;;;1999.90;999.90;;;;;;;24.13;69.42;97336.47;4891423;28;103217;-61
2023/09/22 00:33:32;;;;;;;1999.90;999.90;;;;;;;23.67;70.08;97329.75;4906169;28;103193;-61
2023/09/22 00:36:02;;;;;;;1999.90;999.90;;;;;;;24.04;68.22;97327.84;4889436;28;103195;-61
2023/09/22 00:38:30;;;;;;;1437.90;999.90;;;;;;;23.81;67.87;97316.94;4982529;28;104281;-62
2023/09/22 00:40:59;;;;;;;1535.97;999.90;;;;;;;23.71;68.19;97313.97;4905942;28;103912;-61
2023/09/22 00:43:29;;;;;;;1479.63;999.90;;;;;;;24.20;65.99;97311.03;4890283;28;102923;-61
2023/09/22 00:45:57;;;;;;;1337.30;999.90;;;;;;;24.53;64.09;97336.72;4889834;28;104188;-61
2023/09/22 00:48:28;;;;;;;1237.50;999.90;;;;;;;24.50;64.12;97338.00;4887105;28;104144;-61
2023/09/22 00:50:57;;;;;;;1279.80;999.90;;;;;;;24.35;64.99;97345.69;4904540;28;103415;-61
2023/09/22 00:53:25;;;;;;;1497.80;999.90;;;;;;;23.93;66.85;97369.06;4905720;28;103858;-62
2023/09/22 00:55:54;;;;;;;1731.50;999.90;;;;;;;24.11;66.16;97368.25;4936423;28;103189;-61
2023/09/22 00:58:24;;;;;;;1922.13;999.90;;;;;;;23.74;67.07;97369.31;4911150;28;103936;-62
2023/09/22 01:00:54;;;;;;;1979.63;999.90;;;;;;;23.33;68.58;97361.84;4899911;28;104730;-63
2023/09/22 01:03:23;;;;;;;1999.90;999.90;;;;;;;23.45;68.13;97366.31;4909699;28;102662;-62
2023/09/22 01:05:51;;;;;;;1999.90;999.90;;;;;;;22.98;69.49;97365.09;4916964;28;104142;-62
2023/09/22 01:08:21;;;;;;;1989.70;999.90;;;;;;;23.45;67.56;97363.63;4893126;28;106261;-62
2023/09/22 01:10:49;;;;;;;1758.40;999.90;;;;;;;23.14;69.02;97371.78;4890925;28;104430;-62
2023/09/22 01:13:17;;;;;;;1872.90;999.90;;;;;;;22.92;70.30;97365.97;4892455;28;102781;-63
2023/09/22 01:15:44;;;;;;;1999.90;999.90;;;;;;;22.44;70.77;97352.22;4894338;28;103675;-62
2023/09/22 01:18:15;;;;;;;1895.97;999.90;;;;;;;22.96;69.19;97339.44;4892988;28;103286;-63
2023/09/22 01:20:45;;;;;;;1514.90;999.90;;;;;;;23.32;67.10;97336.78;4890026;28;104135;-62
2023/09/22 01:23:15;;;;;;;1342.30;999.90;;;;;;;23.63;65.44;97331.25;4905799;28;103328;-62
2023/09/22 01:25:45;;;;;;;1300.65;999.90;;;;;;;23.11;66.86;97339.88;4908604;28;104124;-63
2023/09/22 01:28:14;;;;;;;1331.90;999.90;;;;;;;22.76;67.29;97326.16;4905750;28;104534;-63
2023/09/22 01:30:42;;;;;;;1598.85;999.90;;;;;;;23.19;67.03;97318.06;4893236;28;104124;-62
2023/09/22 01:33:11;;;;;;;1449.88;999.90;;;;;;;23.36;66.12;97316.41;4906786;28;102878;-63
2023/09/22 01:35:39;;;;;;;1303.13;999.90;;;;;;;23.28;66.70;97321.28;4888805;28;103963;-62
2023/09/22 01:38:18;;;;;;;1396.27;999.90;;;;;;;23.84;64.38;97331.84;4903508;28;104293;-63
2023/09/22 01:40:46;;;;;;;1312.50;999.90;;;;;;;23.32;65.90;97350.25;4907442;28;104247;-63
2023/09/22 01:43:16;;;;;;;1524.95;999.90;;;;;;;23.31;66.88;97354.00;4900265;28;103143;-63
2023/09/22 01:45:45;;;;;;;1442.53;999.90;;;;;;;23.33;65.29;97354.56;4892899;28;103661;-63
2023/09/22 01:48:13;;;;;;;1402.33;999.90;;;;;;;23.12;65.89;97357.72;4887468;28;104363;-63
2023/09/22 01:50:42;;;;;;;1891.20;999.90;;;;;;;22.92;68.46;97371.34;4905842;28;104153;-62
2023/09/22 01:53:11;;;;;;;1958.15;999.90;;;;;;;23.40;66.06;97355.38;4891450;28;103069;-63
2023/09/22 01:55:41;;;;;;;1364.35;999.90;;;;;;;23.38;65.65;97359.34;4892360;28;104064;-63
2023/09/22 01:58:11;;;;;;;1286.20;999.90;;;;;;;23.64;63.83;97359.88;4890977;28;105000;-62
2023/09/22 02:00:39;;;;;;;1210.53;999.90;;;;;;;23.39;64.74;97347.50;4906584;28;104517;-63
2023/09/22 02:03:08;;;;;;;1383.35;999.90;;;;;;;23.36;65.46;97335.28;4904252;28;104227;-62
2023/09/22 02:05:36;;;;;;;1413.90;999.90;;;;;;;23.72;63.97;97339.06;4893518;28;103019;-61
2023/09/22 02:08:05;;;;;;;1613.07;999.90;;;;;;;22.86;67.53;97334.53;4903296;28;103581;-61
2023/09/22 02:10:33;;;;;;;1999.90;999.90;;;;;;;23.24;67.24;97331.69;4891503;28;104195;-60
2023/09/22 02:13:04;;;;;;;1631.80;999.90;;;;;;;23.11;66.17;97339.88;4902811;28;102819;-60
2023/09/22 02:15:32;;;;;;;1327.65;999.90;;;;;;;23.74;62.85;97334.25;4890273;28;103944;-60
2023/09/22 02:18:00;;;;;;;1206.47;999.90;;;;;;;23.53;63.96;97336.34;4902777;28;103971;-60
2023/09/22 02:20:28;;;;;;;995.72;928.10;;;;;;;23.86;62.00;97341.34;4891519;28;103832;-60
2023/09/22 02:22:59;;;;;;;1063.57;986.23;;;;;;;23.90;62.30;97336.31;4890852;28;103077;-60
2023/09/22 02:25:27;;;;;;;1045.15;973.30;;;;;;;24.00;61.47;97333.94;4888597;28;104444;-60
2023/09/22 02:27:56;;;;;;;1012.73;944.73;;;;;;;23.87;61.54;97344.88;4890938;28;104028;-60
2023/09/22 02:30:26;;;;;;;1090.25;999.90;;;;;;;23.53;62.40;97346.31;4890197;28;105091;-60
2023/09/22 02:32:54;;;;;;;1146.20;999.90;;;;;;;23.11;63.65;97356.06;4890287;28;102887;-60
2023/09/22 02:35:23;;;;;;;1320.10;999.90;;;;;;;22.35;66.59;97366.97;4891836;28;103999;-60
2023/09/22 02:37:51;;;;;;;1588.88;999.90;;;;;;;22.52;66.29;97360.03;4891272;28;103998;-60
2023/09/22 02:40:19;;;;;;;1695.40;999.90;;;;;;;23.07;64.69;97346.78;4891572;28;104247;-60
2023/09/22 02:42:48;;;;;;;1433.35;999.90;;;;;;;23.01;64.17;97336.88;4893071;28;102841;-60
2023/09/22 02:45:18;;;;;;;1419.65;999.90;;;;;;;22.61;64.93;97338.25;4904716;28;103637;-61
2023/09/22 02:47:48;;;;;;;1486.93;999.90;;;;;;;22.43;65.52;97361.34;4886363;28;104082;-61
2023/09/22 02:50:18;;;;;;;1487.83;999.90;;;;;;;22.41;65.82;97374.19;4893321;28;103237;-60
2023/09/22 02:52:47;;;;;;;1437.63;999.90;;;;;;;22.58;65.57;97379.03;4907590;28;103265;-60
2023/09/22 02:55:16;;;;;;;1355.07;999.90;;;;;;;22.61;65.64;97373.22;4895103;28;103603;-61
2023/09/22 02:57:47;;;;;;;1318.18;999.90;;;;;;;22.77;64.17;97383.47;4906310;28;104186;-61
2023/09/22 03:00:18;;;;;;;1260.95;999.90;;;;;;;23.14;63.30;97377.16;4890740;28;103903;-61
2023/09/22 03:02:49;;;;;;;1206.05;999.90;;;;;;;22.94;63.72;97365.72;4908031;28;102803;-61
2023/09/22 03:05:18;;;;;;;1127.03;999.90;;;;;;;23.21;61.82;97369.03;4893037;28;103440;-62
2023/09/22 03:07:51;;;;;;;1124.68;999.90;;;;;;;22.70;63.53;97345.03;4906283;28;104322;-61
2023/09/22 03:10:20;;;;;;;1279.75;999.90;;;;;;;23.31;63.54;97337.00;4904864;28;105299;-62
2023/09/22 03:12:51;;;;;;;1280.90;999.90;;;;;;;23.44;62.20;97336.88;4894782;28;103383;-62
2023/09/22 03:15:20;;;;;;;1178.63;999.90;;;;;;;23.38;61.84;97333.19;4889652;28;104099;-61
2023/09/22 03:17:50;;;;;;;971.03;905.50;;;;;;;23.75;60.23;97338.59;4892038;28;104358;-61
2023/09/22 03:20:20;;;;;;;1001.75;931.90;;;;;;;23.07;62.84;97352.16;4891024;28;103233;-61
2023/09/22 03:22:49;;;;;;;1460.67;999.90;;;;;;;23.17;64.04;97365.94;4907126;28;103228;-61
2023/09/22 03:25:17;;;;;;;1414.18;999.90;;;;;;;23.45;62.05;97366.31;4906787;28;104234;-61
2023/09/22 03:27:45;;;;;;;1377.70;999.90;;;;;;;23.30;62.55;97363.09;4892332;28;103684;-60
2023/09/22 03:30:18;;;;;;;1277.78;999.90;;;;;;;23.25;62.20;97362.97;4909824;28;104228;-61
2023/09/22 03:32:46;;;;;;;1405.95;999.90;;;;;;;23.55;62.02;97366.59;4890912;28;102779;-61
2023/09/22 03:35:17;;;;;;;1272.57;999.90;;;;;;;23.58;61.54;97359.94;4901052;28;104348;-61
2023/09/22 03:37:48;;;;;;;1343.68;999.90;;;;;;;23.43;62.36;97357.63;4909131;28;105936;-61
2023/09/22 03:40:22;;;;;;;1306.80;999.90;;;;;;;23.23;62.73;97394.69;4894787;28;103269;-61
2023/09/22 03:42:51;;;;;;;1280.53;999.90;;;;;;;23.54;61.58;97413.47;4907196;28;104397;-61
2023/09/22 03:45:19;;;;;;;1292.47;999.90;;;;;;;22.87;63.64;97426.91;4893692;28;103954;-61
2023/09/22 03:47:48;;;;;;;1416.60;999.90;;;;;;;23.07;62.37;97427.59;4913397;28;104426;-62
2023/09/22 03:50:17;;;;;;;1425.47;999.90;;;;;;;22.89;63.37;97435.59;4910740;28;103136;-61
2023/09/22 03:52:46;;;;;;;1547.57;999.90;;;;;;;22.72;64.30;97437.16;4892147;28;103290;-61
2023/09/22 03:55:15;;;;;;;1654.63;999.90;;;;;;;22.65;64.71;97436.38;4894253;28;102857;-62
2023/09/22 03:57:45;;;;;;;1615.18;999.90;;;;;;;22.72;65.00;97435.28;4897138;28;104387;-61
2023/09/22 04:00:18;;;;;;;1641.47;999.90;;;;;;;23.29;63.17;97420.75;4897269;28;105779;-61
2023/09/22 04:02:47;;;;;;;1395.87;999.90;;;;;;;23.36;63.05;97421.50;4889447;28;102911;-61
2023/09/22 04:05:17;;;;;;;1322.80;999.90;;;;;;;23.13;63.86;97407.81;4905545;28;103079;-62
2023/09/22 04:07:45;;;;;;;1453.38;999.90;;;;;;;23.55;63.10;97393.56;4892030;28;104224;-62
2023/09/22 04:10:15;;;;;;;1270.55;999.90;;;;;;;23.83;61.75;97384.13;4905003;28;102913;-61
2023/09/22 04:12:43;;;;;;;1248.00;999.90;;;;;;;24.02;61.29;97377.66;4909694;28;103287;-62
2023/09/22 04:15:12;;;;;;;1102.20;999.90;;;;;;;23.98;61.03;97373.75;4893636;28;103667;-62
2023/09/22 04:17:40;;;;;;;1148.53;999.90;;;;;;;24.14;60.76;97373.19;4900856;28;104011;-62
2023/09/22 04:20:12;;;;;;;1110.18;999.90;;;;;;;24.19;60.46;97373.31;4909099;28;103794;-62
2023/09/22 04:22:44;;;;;;;1170.57;999.90;;;;;;;24.12;60.85;97367.19;4908221;28;103278;-62
2023/09/22 04:25:18;;;;;;;1084.13;999.80;;;;;;;24.28;59.98;97374.63;4890949;28;103596;-62
2023/09/22 04:27:53;;;;;;;1216.63;999.90;;;;;;;23.97;61.14;97385.63;4890306;28;103640;-61
2023/09/22 04:30:22;;;;;;;1408.70;999.90;;;;;;;24.14;61.32;97382.09;4917997;28;103165;-62
2023/09/22 04:32:53;;;;;;;1291.70;999.90;;;;;;;24.20;61.14;97393.84;4894076;28;103278;-62
2023/09/22 04:35:21;;;;;;;1344.85;999.90;;;;;;;24.27;60.69;97394.59;4902945;28;103737;-62
2023/09/22 04:37:51;;;;;;;1353.32;999.90;;;;;;;24.32;60.51;97389.31;4893189;28;104320;-61
2023/09/22 04:40:25;;;;;;;1306.07;999.90;;;;;;;24.36;60.74;97400.50;4892633;28;104007;-62
2023/09/22 04:42:54;;;;;;;1342.60;999.90;;;;;;;24.06;61.59;97389.63;4894156;28;103971;-62
2023/09/22 04:45:23;;;;;;;1852.00;999.90;;;;;;;24.05;61.83;97388.84;4904863;28;102968;-62
2023/09/22 04:47:52;;;;;;;1633.20;999.90;;;;;;;24.24;61.21;97386.94;4910950;28;103503;-62
2023/09/22 04:50:24;;;;;;;1354.83;999.90;;;;;;;24.44;60.89;97392.91;4894190;28;104072;-62
2023/09/22 04:52:53;;;;;;;1292.53;999.90;;;;;;;24.44;60.49;97392.06;4910499;28;102977;-61
2023/09/22 04:55:21;;;;;;;1403.37;999.90;;;;;;;24.31;60.99;97384.16;4914228;28;103561;-61
2023/09/22 04:57:49;;;;;;;1367.90;999.90;;;;;;;24.44;60.27;97382.09;4903186;28;104143;-62
2023/09/22 05:00:21;;;;;;;1376.13;999.90;;;;;;;24.30;60.88;97386.03;4906060;28;104220;-61
2023/09/22 05:02:50;;;;;;;1727.75;999.90;;;;;;;23.88;62.93;97389.66;4893783;28;102710;-62
2023/09/22 05:05:19;;;;;;;1892.03;999.90;;;;;;;23.81;62.94;97387.03;4900935;28;103275;-61
2023/09/22 05:07:48;;;;;;;1999.90;999.90;;;;;;;23.14;65.42;97385.25;4893515;28;104029;-61
2023/09/22 05:10:17;;;;;;;1999.90;999.90;;;;;;;23.21;64.99;97380.63;4894333;28;103247;-62
2023/09/22 05:12:46;;;;;;;1999.90;999.90;;;;;;;23.00;66.17;97379.16;4906768;28;102894;-62
2023/09/22 05:15:14;;;;;;;1999.90;999.90;;;;;;;22.82;67.72;97386.38;4890066;28;103771;-61
2023/09/22 05:17:42;;;;;;;1999.90;999.90;;;;;;;22.91;66.61;97391.25;4906196;28;104335;-63
2023/09/22 05:20:16;;;;;;;1858.88;999.90;;;;;;;22.88;66.76;97409.69;4900325;28;103304;-61
2023/09/22 05:22:45;;;;;;;1669.73;999.90;;;;;;;22.95;66.91;97399.72;4891114;28;103952;-61
2023/09/22 05:25:14;;;;;;;1658.43;999.90;;;;;;;22.78;66.50;97402.13;4893143;28;102884;-61
2023/09/22 05:27:46;;;;;;;1915.65;999.90;;;;;;;22.42;69.06;97407.31;4893760;28;104000;-61
2023/09/22 05:30:15;;;;;;;1600.57;999.90;;;;;;;22.74;67.20;97416.22;4896348;28;103274;-61
2023/09/22 05:32:45;;;;;;;1426.38;999.90;;;;;;;23.29;64.91;97423.44;4893897;28;102714;-62
2023/09/22 05:35:13;;;;;;;1251.00;999.90;;;;;;;23.42;64.40;97436.81;4893551;28;103989;-61
2023/09/22 05:37:40;;;;;;;1323.30;999.90;;;;;;;23.07;64.52;97438.34;4891057;28;104403;-62
2023/09/22 05:40:12;;;;;;;1324.50;999.90;;;;;;;23.40;63.83;97443.47;4905341;28;103051;-61
2023/09/22 05:42:42;;;;;;;1260.57;999.90;;;;;;;23.60;62.21;97465.69;4912787;28;102980;-61
2023/09/22 05:45:13;;;;;;;1179.03;999.90;;;;;;;23.47;62.60;97463.91;4916070;28;103747;-62
2023/09/22 05:47:40;;;;;;;1266.75;999.90;;;;;;;23.53;62.57;97471.13;4904197;28;104276;-61
2023/09/22 05:50:10;;;;;;;1243.60;999.90;;;;;;;23.48;63.24;97454.78;4894021;28;103210;-61
2023/09/22 05:52:39;;;;;;;1298.80;999.90;;;;;;;23.42;63.08;97463.75;4892800;28;102699;-62
2023/09/22 05:55:12;;;;;;;1286.32;999.90;;;;;;;23.58;62.33;97463.19;4897451;28;104466;-62
2023/09/22 05:57:40;;;;;;;1333.23;999.90;;;;;;;23.94;61.95;97466.97;4895777;28;104119;-62
2023/09/22 06:00:15;;;;;;;1198.97;999.90;;;;;;;24.12;61.17;97469.69;4894419;28;103232;-62
2023/09/22 06:02:52;;;;;;;1137.68;999.90;;;;;;;23.55;61.04;97477.09;4889453;28;103270;-62
2023/09/22 06:05:23;;;;;;;1155.68;999.90;;;;;;;23.14;62.62;97484.06;4887284;28;102950;-62
2023/09/22 06:07:54;;;;;;;1186.85;999.90;;;;;;;23.61;61.23;97489.69;4893856;28;104306;-62
2023/09/22 06:10:22;;;;;;;1069.20;989.17;;;;;;;23.88;60.31;97479.50;4893006;28;103200;-62
2023/09/22 06:12:51;;;;;;;1128.18;999.90;;;;;;;23.44;61.19;97487.78;4893039;28;102980;-64
2023/09/22 06:15:19;;;;;;;1223.53;999.90;;;;;;;23.15;62.38;97488.44;4904123;28;104263;-62
2023/09/22 06:17:48;;;;;;;1128.00;999.90;;;;;;;23.74;60.33;97498.72;4892363;28;105014;-62
2023/09/22 06:20:18;;;;;;;1051.40;975.88;;;;;;;23.77;60.29;97509.06;4899475;28;103242;-62
2023/09/22 06:22:49;;;;;;;979.53;909.83;;;;;;;23.99;59.72;97512.97;4895630;28;102921;-62
2023/09/22 06:25:17;;;;;;;985.00;917.47;;;;;;;23.99;59.69;97502.19;4891549;28;103691;-63
2023/09/22 06:27:46;;;;;;;995.22;926.40;;;;;;;23.88;60.12;97508.31;4890608;28;104201;-62
2023/09/22 06:30:15;;;;;;;1217.90;999.90;;;;;;;23.89;61.13;97508.09;4894822;28;103631;-62
2023/09/22 06:32:45;;;;;;;1267.97;999.90;;;;;;;24.00;60.10;97518.13;4895703;28;103047;-60
2023/09/22 06:35:14;;;;;;;1290.80;999.90;;;;;;;24.00;60.68;97520.03;4906010;28;103960;-61
2023/09/22 06:37:43;;;;;;;1233.22;999.90;;;;;;;23.92;60.95;97523.00;4906322;28;103304;-61
2023/09/22 06:40:13;;;;;;;1413.20;999.90;;;;;;;23.91;61.22;97499.78;4892339;28;102998;-61
2023/09/22 06:42:44;;;;;;;1313.55;999.90;;;;;;;24.17;59.72;97504.91;4904464;28;103490;-60
2023/09/22 06:45:15;;;;;;;1322.72;999.90;;;;;;;23.78;61.27;97516.06;4903737;28;103069;-60
2023/09/22 06:47:55;;;;;;;1446.45;999.90;;;;;;;24.25;60.68;97515.41;4897498;28;104091;-60
2023/09/22 06:50:24;;;;;;;1324.60;999.90;;;;;;;24.36;60.10;97513.84;4897990;28;103270;-62
2023/09/22 06:52:53;;;;;;;1343.55;999.90;;;;;;;24.17;60.87;97508.44;4909824;28;102860;-60
2023/09/22 06:55:21;;;;;;;1650.90;999.90;;;;;;;24.37;61.32;97513.59;4895898;28;103616;-60
2023/09/22 06:57:49;;;;;;;1812.60;999.90;;;;;;;23.84;63.02;97517.91;4895514;28;104447;-61
2023/09/22 07:00:18;;;;;;;1999.90;999.90;;;;;;;24.48;62.11;97503.91;4893527;28;103461;-61
2023/09/22 07:02:48;;;;;;;1474.80;999.90;;;;;;;24.94;60.11;97495.22;4902581;28;104747;-61
2023/09/22 07:05:18;;;;;;;1156.60;999.90;;;;;;;24.96;58.92;97475.00;4895095;28;103792;-61
2023/09/22 07:07:47;;;;;;;1254.53;999.90;;;;;;;23.79;62.94;97480.00;4916068;28;104552;-61
2023/09/22 07:10:17;;;;;;;1498.20;999.90;;;;;;;24.25;62.01;97491.13;4892376;28;103163;-61
2023/09/22 07:12:46;;;;;;;1515.85;999.90;;;;;;;24.50;60.10;97486.47;4918411;28;102709;-61
2023/09/22 07:15:15;;;;;;;1316.07;999.90;;;;;;;24.20;61.27;97496.34;4910760;28;103290;-61
2023/09/22 07:17:44;;;;;;;1243.05;999.90;;;;;;;24.62;59.93;97481.91;4907916;28;103032;-61
2023/09/22 07:20:14;;;;;;;1224.88;999.90;;;;;;;24.61;59.09;97485.69;4897342;28;103169;-61
2023/09/22 07:22:43;;;;;;;1296.67;999.90;;;;;;;24.52;59.57;97489.75;4896860;28;102985;-61
2023/09/22 07:25:13;;;;;;;1211.53;999.90;;;;;;;24.66;59.20;97487.69;4897370;28;103875;-62
2023/09/22 07:27:45;;;;;;;1138.20;999.90;;;;;;;25.04;58.52;97493.59;4897619;28;104222;-62
2023/09/22 07:30:13;;;;;;;1001.08;933.55;;;;;;;25.26;58.25;97507.41;4895691;28;103149;-62
2023/09/22 07:32:42;;;;;;;1084.15;999.90;;;;;;;25.35;58.56;97506.00;4987449;27;102854;-62
2023/09/22 07:35:13;;;;;;;1206.18;999.90;;;;;;;24.96;59.31;97515.53;4897953;28;103653;-60
2023/09/22 07:37:41;;;;;;;1182.80;999.90;;;;;;;25.16;57.83;97513.38;4898112;28;103980;-62
2023/09/22 07:40:12;;;;;;;993.43;927.70;;;;;;;25.24;56.95;97506.78;4909911;28;103216;-59
2023/09/22 07:42:41;;;;;;;1233.47;999.90;;;;;;;24.08;61.21;97512.44;4894178;28;102861;-60
2023/09/22 07:45:12;;;;;;;1395.00;999.90;;;;;;;24.28;59.81;97512.25;4900024;28;102828;-62
2023/09/22 07:47:41;;;;;;;1449.37;999.90;;;;;;;24.63;59.05;97515.97;4900446;28;103397;-60
2023/09/22 07:50:09;;;;;;;1312.53;999.90;;;;;;;24.54;59.63;97528.13;4912527;28;103272;-60
2023/09/22 07:52:39;;;;;;;1295.15;999.90;;;;;;;24.55;59.00;97535.19;4897563;28;102702;-60
2023/09/22 07:55:07;;;;;;;1330.47;999.90;;;;;;;24.18;60.51;97544.34;4906118;28;102806;-62
2023/09/22 07:57:36;;;;;;;1409.45;999.90;;;;;;;24.28;60.10;97543.81;4900703;28;103700;-61
2023/09/22 08:00:09;;;;;;;1460.57;999.90;;;;;;;24.60;59.71;97538.03;4899053;28;103170;-61
2023/09/22 08:02:41;;;;;;;1349.67;999.90;;;;;;;24.82;59.15;97529.44;4911704;28;102895;-62
2023/09/22 08:05:15;;;;;;;1357.13;999.90;;;;;;;24.56;59.78;97526.00;4917924;28;102961;-63
2023/09/22 08:07:43;;;;;;;1397.85;999.90;;;;;;;24.57;59.84;97543.88;4912868;28;104245;-62
2023/09/22 08:10:13;;;;;;;1371.57;999.90;;;;;;;24.96;58.86;97558.75;4918051;28;104126;-62
2023/09/22 08:12:42;;;;;;;1373.55;999.90;;;;;;;24.95;58.83;97551.72;4913211;28;102786;-63
2023/09/22 08:15:14;;;;;;;1354.68;999.90;;;;;;;24.56;60.15;97542.22;4895937;28;102889;-62
2023/09/22 08:17:46;;;;;;;1440.45;999.90;;;;;;;24.40;59.29;97548.22;4898039;28;104410;-62
2023/09/22 08:20:15;;;;;;;1289.20;999.90;;;;;;;24.51;57.71;97544.78;4897777;28;103313;-62
2023/09/22 08:22:43;;;;;;;1114.07;999.90;;;;;;;24.76;57.73;97536.56;4922653;28;103039;-60
2023/09/22 08:25:12;;;;;;;910.22;851.63;;;;;;;24.58;56.48;97542.84;4923466;28;103953;-63
2023/09/22 08:27:40;;;;;;;839.88;786.88;;;;;;;24.15;57.90;97555.56;4990473;28;104124;-61
2023/09/22 08:30:12;;;;;;;820.65;771.47;;;;;;;24.73;56.25;97559.44;4901675;28;103171;-63
2023/09/22 08:32:42;;;;;;;709.50;670.00;;;;;;;24.77;56.25;97559.81;4915925;28;103026;-62
2023/09/22 08:35:15;;;;;;;651.55;615.92;;;;;;;25.04;55.75;97563.03;4905871;28;102825;-61
2023/09/22 08:37:49;;;;;;;587.60;554.58;;;;;;;24.95;55.54;97559.00;4914281;28;103583;-61
2023/09/22 08:40:27;;;;;;;630.93;593.93;;;;;;;24.76;57.67;97559.00;4901730;28;103034;-63
2023/09/22 08:42:56;;;;;;;698.78;657.60;;;;;;;24.72;56.78;97557.81;4899898;28;102892;-62
2023/09/22 08:45:27;;;;;;;788.05;736.88;;;;;;;24.19;58.38;97570.28;4902773;28;103603;-63
2023/09/22 08:47:57;;;;;;;875.03;816.58;;;;;;;24.00;59.06;97563.19;4919619;28;104303;-62
2023/09/22 08:50:31;;;;;;;944.85;880.33;;;;;;;24.49;57.78;97559.56;4916349;28;103999;-61
2023/09/22 08:53:08;;;;;;;885.00;828.03;;;;;;;24.73;57.06;97561.31;4934372;28;103407;-61
2023/09/22 08:55:39;;;;;;;897.15;838.92;;;;;;;24.59;56.72;97559.84;4903239;28;102686;-61
2023/09/22 08:58:10;;;;;;;832.75;778.53;;;;;;;25.34;55.72;97555.72;4907122;28;103043;-62
2023/09/22 09:00:39;;;;;;;799.15;749.45;;;;;;;24.82;56.27;97561.84;4919990;28;103204;-62
2023/09/22 09:03:08;;;;;;;777.58;728.35;;;;;;;24.82;56.59;97561.84;4902647;28;102742;-63
2023/09/22 09:05:39;;;;;;;818.63;766.17;;;;;;;24.79;56.50;97563.09;4900589;28;103026;-62
2023/09/22 09:08:17;;;;;;;787.70;739.10;;;;;;;24.63;57.13;97561.88;4916214;28;104439;-61
2023/09/22 09:10:46;;;;;;;861.67;802.65;;;;;;;23.52;60.96;97571.88;4912036;28;103227;-60
2023/09/22 09:13:17;;;;;;;860.67;806.27;;;;;;;24.86;56.66;97565.75;4915908;28;104872;-62
2023/09/22 09:15:47;;;;;;;801.22;753.45;;;;;;;25.31;55.20;97573.22;4902736;28;102967;-60
2023/09/22 09:18:20;;;;;;;704.90;664.60;;;;;;;25.22;55.24;97579.19;4899640;28;103260;-60
2023/09/22 09:21:06;;;;;;;680.00;639.38;;;;;;;24.82;55.11;97586.16;4902852;28;103853;-61
2023/09/22 09:23:38;;;;;;;696.75;656.38;;;;;;;25.35;54.87;97579.78;4900242;28;102685;-60
2023/09/22 09:26:06;;;;;;;687.42;646.17;;;;;;;25.45;55.82;97578.41;4903597;28;102902;-61
2023/09/22 09:28:40;;;;;;;744.20;696.45;;;;;;;24.89;56.73;97584.22;4902543;28;103400;-61
2023/09/22 09:31:10;;;;;;;740.53;692.50;;;;;;;24.83;55.97;97596.75;4902219;28;103464;-63
2023/09/22 09:33:51;;;;;;;798.67;748.80;;;;;;;25.20;55.27;97592.09;4913943;28;102703;-63
2023/09/22 09:36:21;;;;;;;732.97;689.63;;;;;;;24.92;55.64;97592.69;4897154;28;103533;-63
2023/09/22 09:38:49;;;;;;;727.85;685.97;;;;;;;25.74;54.20;97585.69;4897524;28;103997;-63
2023/09/22 09:41:21;;;;;;;667.47;630.23;;;;;;;25.97;53.98;97592.97;4904706;28;103243;-60
2023/09/22 09:43:51;;;;;;;669.80;630.57;;;;;;;25.52;54.24;97607.03;4897763;28;103170;-63
2023/09/22 09:46:20;;;;;;;704.65;660.40;;;;;;;25.11;54.73;97597.00;4912717;28;102794;-61
2023/09/22 09:48:52;;;;;;;756.97;707.70;;;;;;;24.59;55.93;97576.06;4900701;28;103972;-61
2023/09/22 09:51:24;;;;;;;786.20;736.53;;;;;;;25.02;55.00;97567.81;4903810;28;103149;-61
2023/09/22 09:54:04;;;;;;;771.00;724.72;;;;;;;26.03;53.39;97570.38;4898009;28;102740;-61
2023/09/22 09:56:33;;;;;;;732.43;688.77;;;;;;;26.57;52.99;97571.88;4898733;28;102836;-63
2023/09/22 09:59:02;;;;;;;681.22;640.33;;;;;;;25.67;53.88;97584.94;4907454;28;103469;-60
2023/09/22 10:01:35;;;;;;;717.08;670.30;;;;;;;25.58;54.63;97591.75;4905197;28;103384;-63
2023/09/22 10:04:05;;;;;;;723.28;680.85;;;;;;;25.92;52.55;97583.69;4898420;28;102714;-62
2023/09/22 10:06:37;;;;;;;663.10;625.13;;;;;;;25.90;52.84;97580.41;4898366;28;103977;-62
2023/09/22 10:09:23;;;;;;;673.45;636.80;;;;;;;26.84;51.14;97578.44;4910215;28;103124;-60
2023/09/22 10:11:54;;;;;;;620.92;588.63;;;;;;;26.75;52.16;97572.53;4901936;28;103402;-60
2023/09/22 10:14:43;;;;;;;568.75;539.53;;;;;;;25.19;54.31;97563.41;4899269;28;102682;-62
2023/09/22 10:17:24;;;;;;;623.40;590.95;;;;;;;26.04;52.37;97551.22;4899564;28;103298;-59
2023/09/22 10:19:53;;;;;;;590.40;560.40;;;;;;;26.44;51.17;97548.63;4901997;28;104653;-63
2023/09/22 10:22:22;;;;;;;606.08;575.65;;;;;;;26.88;50.51;97542.50;4906036;28;103321;-63
2023/09/22 10:25:24;;;;;;;599.27;569.47;;;;;;;26.29;51.87;97548.28;4895656;28;103390;-61
2023/09/22 10:28:03;;;;;;;554.72;528.03;;;;;;;24.56;54.26;97552.22;4894174;28;102781;-63
2023/09/22 10:31:02;;;;;;;563.45;534.83;;;;;;;25.67;53.67;97549.78;4904931;28;103318;-60
2023/09/22 10:33:33;;;;;;;599.58;567.65;;;;;;;25.77;52.64;97553.56;4898459;28;104337;-61
2023/09/22 10:36:01;;;;;;;601.08;570.75;;;;;;;25.77;51.49;97556.25;4897337;28;102686;-63
2023/09/22 10:38:31;;;;;;;618.40;584.80;;;;;;;26.35;51.53;97552.75;4898446;28;104008;-62
2023/09/22 10:41:05;;;;;;;622.92;590.22;;;;;;;27.12;50.28;97558.66;4898144;28;103840;-62
2023/09/22 10:43:34;;;;;;;656.03;622.40;;;;;;;26.42;49.93;97553.44;4899326;28;103520;-63
2023/09/22 10:46:09;;;;;;;660.13;627.55;;;;;;;27.14;48.27;97542.97;4893471;28;102913;-60
2023/09/22 10:48:38;;;;;;;668.40;636.17;;;;;;;26.24;47.55;97545.47;4896125;28;102705;-62
2023/09/22 10:51:08;;;;;;;660.40;628.03;;;;;;;27.76;47.09;97544.63;4898923;28;103232;-63
2023/09/22 10:53:55;;;;;;;680.38;646.90;;;;;;;26.93;48.02;97548.00;4909419;28;103203;-62
2023/09/22 10:56:24;;;;;;;676.75;643.92;;;;;;;26.45;47.38;97551.06;4896630;28;102698;-61
2023/09/22 10:58:53;;;;;;;615.33;587.08;;;;;;;25.53;48.22;97548.38;4896275;28;103075;-62
2023/09/22 11:01:22;;;;;;;587.50;560.60;;;;;;;26.01;48.31;97545.47;4904380;28;104723;-62
2023/09/22 11:03:55;;;;;;;574.72;548.22;;;;;;;25.69;49.30;97548.50;4899778;28;104462;-61